Time;durP1;ratioP1;P1;durP2;ratioP2;P2;SDS_P1;SDS_P2;PMS_P1;PMS_P2;Temp;Humidity;BMP_temperature;BMP_pressure;BME280_temperature;BME280_humidity;BME280_pressure;Samples;Min_cycle;Max_cycle;Signal;HPM_P1;HPM_P2
2022/11/29 00:01:26;;;;;;;;;;;19.50;59.60;;;;;;5039450;28;1295;-70
2022/11/29 00:03:51;;;;;;;;;;;19.50;59.70;;;;;;5042676;28;1415;-71
2022/11/29 00:06:20;;;;;;;;;;;19.50;59.70;;;;;;5027621;28;1440;-70
2022/11/29 00:08:46;;;;;;;;;;;19.50;59.70;;;;;;5039840;28;1260;-71
2022/11/29 00:12:11;;;;;;;;;;;19.50;59.80;;;;;;5029842;28;805;-70
2022/11/29 00:14:04;;;;;;;;;;;19.50;59.80;;;;;;5037269;28;1472;-70
2022/11/29 00:16:29;;;;;;;;;;;19.50;59.80;;;;;;5028998;28;1930;-71
2022/11/29 00:18:55;;;;;;;;;;;19.50;59.90;;;;;;5018684;28;1233;-71
2022/11/29 00:21:20;;;;;;;;;;;19.50;59.90;;;;;;5037265;28;935;-70
2022/11/29 00:23:46;;;;;;;;;;;19.50;60.00;;;;;;5042270;28;842;-70
2022/11/29 00:26:11;;;;;;;;;;;19.40;60.00;;;;;;5041564;28;960;-70
2022/11/29 00:28:36;;;;;;;;;;;19.50;60.10;;;;;;5041048;28;1257;-70
2022/11/29 00:31:18;;;;;;;;;;;19.40;60.10;;;;;;5039530;28;916;-70
2022/11/29 00:33:43;;;;;;;;;;;19.40;60.10;;;;;;5038066;28;888;-71
2022/11/29 00:36:09;;;;;;;;;;;19.40;60.20;;;;;;5029269;28;1971;-70
2022/11/29 00:38:34;;;;;;;;;;;19.40;60.20;;;;;;5042615;28;1244;-70
2022/11/29 00:41:00;;;;;;;;;;;19.40;60.30;;;;;;5044148;28;892;-71
2022/11/29 00:43:25;;;;;;;;;;;19.40;60.30;;;;;;5040148;28;774;-71
2022/11/29 00:45:51;;;;;;;;;;;19.40;60.30;;;;;;5041512;28;900;-71
2022/11/29 00:48:16;;;;;;;;;;;19.30;60.30;;;;;;5040484;28;1221;-70
2022/11/29 00:50:42;;;;;;;;;;;19.30;60.40;;;;;;5044719;28;804;-70
2022/11/29 00:53:07;;;;;;;;;;;19.40;60.40;;;;;;5039729;28;832;-70
2022/11/29 00:55:32;;;;;;;;;;;19.30;60.50;;;;;;5039334;28;927;-71
2022/11/29 00:57:58;;;;;;;;;;;19.30;60.50;;;;;;5038809;28;1977;-71
2022/11/29 01:00:23;;;;;;;;;;;19.30;60.50;;;;;;5040189;28;817;-70
2022/11/29 01:02:49;;;;;;;;;;;19.30;60.60;;;;;;5043404;28;879;-70
2022/11/29 01:05:14;;;;;;;;;;;19.30;60.60;;;;;;5041552;28;1006;-70
2022/11/29 01:07:40;;;;;;;;;;;19.30;60.70;;;;;;5027074;28;1327;-70
2022/11/29 01:10:06;;;;;;;;;;;19.30;60.70;;;;;;5042619;28;1088;-70
2022/11/29 01:12:33;;;;;;;;;;;19.30;60.70;;;;;;5042343;28;874;-70
2022/11/29 01:14:59;;;;;;;;;;;19.20;60.70;;;;;;5040383;28;942;-71
2022/11/29 01:17:24;;;;;;;;;;;19.30;60.80;;;;;;5040434;28;1922;-70
2022/11/29 01:19:50;;;;;;;;;;;19.20;60.80;;;;;;5043072;28;1311;-70
2022/11/29 01:22:15;;;;;;;;;;;19.20;60.80;;;;;;5024538;28;928;-70
2022/11/29 01:24:41;;;;;;;;;;;19.20;60.90;;;;;;5040034;28;1026;-70
2022/11/29 01:27:06;;;;;;;;;;;19.20;60.90;;;;;;5040247;28;816;-70
2022/11/29 01:29:31;;;;;;;;;;;19.20;60.90;;;;;;5039846;28;1265;-71
2022/11/29 01:31:57;;;;;;;;;;;19.20;61.00;;;;;;5040186;28;860;-70
2022/11/29 01:34:22;;;;;;;;;;;19.20;61.00;;;;;;5040071;28;879;-70
2022/11/29 01:36:48;;;;;;;;;;;19.20;61.00;;;;;;5041718;28;1969;-70
2022/11/29 01:39:13;;;;;;;;;;;19.20;61.10;;;;;;5039758;28;1260;-70
2022/11/29 01:41:39;;;;;;;;;;;19.20;61.10;;;;;;5038998;28;987;-70
2022/11/29 01:44:10;;;;;;;;;;;19.20;61.20;;;;;;5038550;28;955;-70
2022/11/29 01:46:36;;;;;;;;;;;19.20;61.20;;;;;;5040836;28;907;-70
2022/11/29 01:49:22;;;;;;;;;;;19.20;61.20;;;;;;5032259;28;1225;-70
2022/11/29 01:51:49;;;;;;;;;;;19.10;61.20;;;;;;5026819;28;1140;-70
2022/11/29 01:54:14;;;;;;;;;;;19.10;61.20;;;;;;5022375;28;883;-70
2022/11/29 01:56:40;;;;;;;;;;;19.10;61.30;;;;;;5022772;28;1930;-70
2022/11/29 01:59:07;;;;;;;;;;;19.10;61.30;;;;;;5022781;28;1379;-70
2022/11/29 02:01:33;;;;;;;;;;;19.10;61.40;;;;;;5023088;28;861;-70
2022/11/29 02:03:59;;;;;;;;;;;19.10;61.40;;;;;;5035789;28;873;-70
2022/11/29 02:06:24;;;;;;;;;;;19.10;61.40;;;;;;5039765;28;783;-70
2022/11/29 02:08:49;;;;;;;;;;;19.10;61.40;;;;;;5023768;28;1289;-70
2022/11/29 02:11:33;;;;;;;;;;;19.10;61.50;;;;;;5038612;28;942;-70
2022/11/29 02:14:17;;;;;;;;;;;19.00;61.40;;;;;;5040713;28;1402;-70
2022/11/29 02:16:42;;;;;;;;;;;19.10;61.50;;;;;;5043162;28;1897;-70
2022/11/29 02:19:08;;;;;;;;;;;19.10;61.50;;;;;;5037051;28;1426;-70
2022/11/29 02:21:46;;;;;;;;;;;19.00;61.50;;;;;;5040502;28;999;-71
2022/11/29 02:24:30;;;;;;;;;;;19.00;61.60;;;;;;5037711;28;904;-71
2022/11/29 02:27:14;;;;;;;;;;;19.00;61.60;;;;;;5039663;28;871;-70
2022/11/29 02:30:15;;;;;;;;;;;19.00;61.60;;;;;;5041953;28;1379;-70
2022/11/29 02:32:41;;;;;;;;;;;19.00;61.60;;;;;;4984701;28;1297;-70
2022/11/29 02:35:18;;;;;;;;;;;19.00;61.70;;;;;;5029800;28;965;-70
2022/11/29 02:37:55;;;;;;;;;;;19.00;61.70;;;;;;5038510;28;1902;-70
2022/11/29 02:40:37;;;;;;;;;;;19.00;61.70;;;;;;5034247;28;972;-70
2022/11/29 02:43:21;;;;;;;;;;;19.00;61.80;;;;;;5041068;28;939;-70
2022/11/29 02:45:59;;;;;;;;;;;19.00;61.80;;;;;;5041207;28;1029;-71
2022/11/29 02:48:27;;;;;;;;;;;19.00;61.80;;;;;;5027550;28;1319;-71
2022/11/29 02:50:53;;;;;;;;;;;19.00;61.80;;;;;;5039761;28;867;-70
2022/11/29 02:53:23;;;;;;;;;;;19.00;61.80;;;;;;5041201;28;847;-70
2022/11/29 02:56:04;;;;;;;;;;;19.00;61.80;;;;;;5026291;28;1035;-70
2022/11/29 02:58:49;;;;;;;;;;;19.00;61.90;;;;;;5036698;28;1959;-70
2022/11/29 03:01:16;;;;;;;;;;;19.00;61.90;;;;;;5038754;28;864;-70
2022/11/29 03:03:54;;;;;;;;;;;19.00;62.00;;;;;;5022910;28;1093;-71
2022/11/29 03:06:42;;;;;;;;;;;18.90;61.90;;;;;;5044960;28;900;-70
2022/11/29 03:09:11;;;;;;;;;;;18.90;61.90;;;;;;5032650;28;1181;-71
2022/11/29 03:12:00;;;;;;;;;;;18.90;62.00;;;;;;5023694;28;888;-71
2022/11/29 03:14:26;;;;;;;;;;;18.90;62.00;;;;;;5039629;28;1082;-71
2022/11/29 03:16:57;;;;;;;;;;;18.90;62.00;;;;;;5039271;28;1874;-70
2022/11/29 03:19:39;;;;;;;;;;;18.90;62.00;;;;;;5042859;28;1272;-71
2022/11/29 03:22:11;;;;;;;;;;;18.90;62.00;;;;;;5037595;28;989;-70
2022/11/29 03:24:41;;;;;;;;;;;18.90;62.00;;;;;;5044838;28;1146;-71
2022/11/29 03:27:08;;;;;;;;;;;18.90;62.00;;;;;;5031089;28;931;-70
2022/11/29 03:29:35;;;;;;;;;;;18.90;62.00;;;;;;5038166;28;1304;-70
2022/11/29 03:32:01;;;;;;;;;;;18.90;62.00;;;;;;5024895;28;813;-71
2022/11/29 03:34:30;;;;;;;;;;;18.90;62.00;;;;;;5043151;28;795;-71
2022/11/29 03:37:14;;;;;;;;;;;18.90;62.10;;;;;;5041693;28;1911;-71
2022/11/29 03:39:42;;;;;;;;;;;18.90;62.10;;;;;;5037161;28;1193;-71
2022/11/29 03:42:29;;;;;;;;;;;18.90;62.10;;;;;;5046082;28;824;-70
2022/11/29 03:45:00;;;;;;;;;;;18.90;62.10;;;;;;5035731;28;922;-70
2022/11/29 03:47:27;;;;;;;;;;;18.90;62.20;;;;;;5022767;28;929;-71
2022/11/29 03:49:52;;;;;;;;;;;18.90;62.20;;;;;;5024951;28;970;-71
2022/11/29 03:52:20;;;;;;;;;;;18.90;62.20;;;;;;5043493;28;876;-71
2022/11/29 03:54:48;;;;;;;;;;;18.90;62.20;;;;;;5043120;28;925;-70
2022/11/29 03:57:14;;;;;;;;;;;18.90;62.20;;;;;;5020737;28;1906;-71
2022/11/29 03:59:58;;;;;;;;;;;18.90;62.20;;;;;;5046196;28;1264;-71
2022/11/29 04:02:50;;;;;;;;;;;18.90;62.20;;;;;;5043165;28;812;-70
2022/11/29 04:05:15;;;;;;;;;;;18.90;62.20;;;;;;5031310;28;1093;-70
2022/11/29 04:07:40;;;;;;;;;;;18.80;62.20;;;;;;5043511;28;1272;-70
2022/11/29 04:10:12;;;;;;;;;;;18.80;62.30;;;;;;5044916;28;1064;-70
2022/11/29 04:12:44;;;;;;;;;;;18.80;62.20;;;;;;5023045;28;1426;-70
2022/11/29 04:15:24;;;;;;;;;;;18.80;62.20;;;;;;5041478;28;1752;-70
2022/11/29 04:18:09;;;;;;;;;;;18.80;62.30;;;;;;5041317;28;1969;-70
2022/11/29 04:20:53;;;;;;;;;;;18.80;62.30;;;;;;5040291;28;907;-70
2022/11/29 04:23:21;;;;;;;;;;;18.90;62.60;;;;;;5043007;28;882;-70
2022/11/29 04:26:06;;;;;;;;;;;18.90;62.40;;;;;;5038950;28;1108;-70
2022/11/29 04:28:50;;;;;;;;;;;18.80;62.30;;;;;;5040558;28;1351;-69
2022/11/29 04:31:33;;;;;;;;;;;18.90;62.40;;;;;;5042067;28;966;-70
2022/11/29 04:34:18;;;;;;;;;;;18.80;62.30;;;;;;5040244;28;891;-70
2022/11/29 04:37:02;;;;;;;;;;;18.80;62.30;;;;;;5036411;28;1965;-70
2022/11/29 04:39:35;;;;;;;;;;;18.80;62.30;;;;;;5041088;28;1268;-70
2022/11/29 04:42:19;;;;;;;;;;;18.80;62.30;;;;;;5032915;28;893;-70
2022/11/29 04:44:50;;;;;;;;;;;18.80;62.40;;;;;;5038966;28;915;-70
2022/11/29 04:47:35;;;;;;;;;;;18.80;62.30;;;;;;5039810;28;1253;-70
2022/11/29 04:50:00;;;;;;;;;;;18.80;62.40;;;;;;5040231;28;901;-70
2022/11/29 04:52:32;;;;;;;;;;;18.80;62.40;;;;;;5039675;28;1021;-70
2022/11/29 04:55:09;;;;;;;;;;;18.80;62.40;;;;;;5042521;28;861;-70
2022/11/29 04:57:43;;;;;;;;;;;18.80;62.40;;;;;;5038608;28;1963;-70
2022/11/29 05:00:09;;;;;;;;;;;18.80;62.50;;;;;;5038806;28;927;-70
2022/11/29 05:02:35;;;;;;;;;;;18.80;62.50;;;;;;5021161;28;888;-70
2022/11/29 05:05:09;;;;;;;;;;;18.80;62.50;;;;;;5039283;28;978;-70
2022/11/29 05:07:41;;;;;;;;;;;18.80;62.50;;;;;;5039699;28;1300;-70
2022/11/29 05:10:17;;;;;;;;;;;18.80;62.50;;;;;;5035689;28;1006;-70
2022/11/29 05:12:42;;;;;;;;;;;18.80;62.50;;;;;;5006124;28;1296;-70
2022/11/29 05:15:26;;;;;;;;;;;18.80;62.50;;;;;;5043991;28;1546;-69
2022/11/29 05:17:52;;;;;;;;;;;18.80;62.50;;;;;;5041320;28;1913;-70
2022/11/29 05:20:20;;;;;;;;;;;18.80;62.40;;;;;;5038729;28;1310;-70
2022/11/29 05:23:09;;;;;;;;;;;18.80;62.40;;;;;;5038879;28;1317;-71
2022/11/29 05:25:43;;;;;;;;;;;18.90;62.40;;;;;;5027140;28;1651;-69
2022/11/29 05:28:19;;;;;;;;;;;18.90;62.30;;;;;;5020442;28;1315;-69
2022/11/29 05:30:51;;;;;;;;;;;19.00;62.40;;;;;;5028459;28;1359;-69
2022/11/29 05:33:19;;;;;;;;;;;19.00;62.30;;;;;;5042283;28;1304;-69
2022/11/29 05:35:52;;;;;;;;;;;19.10;62.20;;;;;;5043483;28;1339;-70
2022/11/29 05:38:36;;;;;;;;;;;19.10;62.20;;;;;;5023496;28;1914;-69
2022/11/29 05:41:33;;;;;;;;;;;19.20;62.30;;;;;;5042670;28;1273;-69
2022/11/29 05:44:08;;;;;;;;;;;19.30;62.30;;;;;;5003672;28;1982;-69
2022/11/29 05:46:33;;;;;;;;;;;19.30;62.20;;;;;;5039934;28;1257;-69
2022/11/29 05:49:08;;;;;;;;;;;19.30;62.20;;;;;;5044229;28;1355;-70
2022/11/29 05:51:40;;;;;;;;;;;19.40;62.00;;;;;;5041851;28;899;-70
2022/11/29 05:54:12;;;;;;;;;;;19.40;62.00;;;;;;5041385;28;867;-70
2022/11/29 05:56:56;;;;;;;;;;;19.40;62.00;;;;;;5007921;28;1922;-70
2022/11/29 05:59:28;;;;;;;;;;;19.50;62.20;;;;;;5043705;28;1253;-70
2022/11/29 06:02:05;;;;;;;;;;;19.50;62.00;;;;;;5039872;28;808;-70
2022/11/29 06:04:49;;;;;;;;;;;19.50;62.00;;;;;;5032171;28;816;-70
2022/11/29 06:07:16;;;;;;;;;;;19.50;62.00;;;;;;5042094;28;806;-70
2022/11/29 06:09:42;;;;;;;;;;;19.50;62.20;;;;;;5025796;28;1351;-69
2022/11/29 06:12:30;;;;;;;;;;;19.50;62.50;;;;;;5043446;28;868;-70
2022/11/29 06:15:15;;;;;;;;;;;19.50;62.30;;;;;;5045295;28;1497;-70
2022/11/29 06:17:43;;;;;;;;;;;19.60;62.10;;;;;;5039862;28;1886;-69
2022/11/29 06:20:22;;;;;;;;;;;19.80;62.20;;;;;;5038454;28;2166;-68
2022/11/29 06:22:56;;;;;;;;;;;19.80;62.00;;;;;;5039391;28;1504;-69
2022/11/29 06:25:24;;;;;;;;;;;19.90;61.80;;;;;;5040381;28;1367;-69
2022/11/29 06:28:10;;;;;;;;;;;20.00;61.70;;;;;;5040069;28;1265;-69
2022/11/29 06:30:45;;;;;;;;;;;20.10;61.50;;;;;;5029317;28;2183;-69
2022/11/29 06:33:14;;;;;;;;;;;20.20;61.20;;;;;;5040093;28;1551;-69
2022/11/29 06:35:44;;;;;;;;;;;20.30;61.00;;;;;;5024358;28;869;-69
2022/11/29 06:38:30;;;;;;;;;;;20.40;60.80;;;;;;5038817;28;1982;-69
2022/11/29 06:40:56;;;;;;;;;;;20.40;60.50;;;;;;5039419;28;1604;-70
2022/11/29 06:43:21;;;;;;;;;;;20.50;60.40;;;;;;5040632;28;1026;-69
2022/11/29 06:46:02;;;;;;;;;;;20.60;60.30;;;;;;5039476;28;1266;-69
2022/11/29 06:48:29;;;;;;;;;;;20.60;60.10;;;;;;5021958;28;1606;-69
2022/11/29 06:50:54;;;;;;;;;;;20.60;60.10;;;;;;5030833;28;859;-70
2022/11/29 06:53:21;;;;;;;;;;;20.60;60.00;;;;;;5038146;28;900;-70
2022/11/29 06:55:49;;;;;;;;;;;20.60;60.00;;;;;;5039911;28;817;-69
2022/11/29 06:58:15;;;;;;;;;;;20.60;60.00;;;;;;5037172;28;1922;-70
2022/11/29 07:00:40;;;;;;;;;;;20.60;60.00;;;;;;5040456;28;1015;-70
2022/11/29 07:03:15;;;;;;;;;;;20.70;60.10;;;;;;5037258;28;823;-69
2022/11/29 07:05:40;;;;;;;;;;;20.70;60.10;;;;;;5039873;28;832;-69
2022/11/29 07:08:15;;;;;;;;;;;20.70;60.20;;;;;;5037341;28;1232;-70
2022/11/29 07:10:41;;;;;;;;;;;20.70;60.40;;;;;;5035582;28;809;-71
2022/11/29 07:13:07;;;;;;;;;;;20.70;60.40;;;;;;5034289;28;1811;-69
2022/11/29 07:15:32;;;;;;;;;;;20.60;60.50;;;;;;5035896;28;1584;-70
2022/11/29 07:18:02;;;;;;;;;;;20.70;60.60;;;;;;5041059;28;1969;-69
2022/11/29 07:20:28;;;;;;;;;;;20.60;60.60;;;;;;5028590;28;1178;-69
2022/11/29 07:23:02;;;;;;;;;;;20.60;60.80;;;;;;5041304;28;934;-70
2022/11/29 07:25:33;;;;;;;;;;;20.60;60.80;;;;;;5034691;28;1034;-70
2022/11/29 07:28:08;;;;;;;;;;;20.60;60.90;;;;;;5033551;28;1382;-70
2022/11/29 07:30:33;;;;;;;;;;;20.60;61.10;;;;;;5037025;28;919;-70
2022/11/29 07:33:02;;;;;;;;;;;20.60;61.20;;;;;;5035081;28;891;-70
2022/11/29 07:35:37;;;;;;;;;;;20.50;61.40;;;;;;5037129;28;2153;-70
2022/11/29 07:38:18;;;;;;;;;;;20.50;61.70;;;;;;5032556;28;1902;-69
2022/11/29 07:40:56;;;;;;;;;;;20.50;61.70;;;;;;5032459;28;1457;-69
2022/11/29 07:43:22;;;;;;;;;;;20.50;61.70;;;;;;5036015;28;2022;-69
2022/11/29 07:45:47;;;;;;;;;;;20.50;61.90;;;;;;5036162;28;1359;-66
2022/11/29 07:48:13;;;;;;;;;;;20.40;61.90;;;;;;5038672;28;1338;-68
2022/11/29 07:50:39;;;;;;;;;;;20.40;62.00;;;;;;5031426;28;1193;-67
2022/11/29 07:53:05;;;;;;;;;;;20.40;62.10;;;;;;5042510;28;851;-71
2022/11/29 07:55:30;;;;;;;;;;;20.40;62.30;;;;;;5040732;28;1294;-71
2022/11/29 07:57:55;;;;;;;;;;;20.40;62.40;;;;;;5039991;28;1969;-71
2022/11/29 08:00:21;;;;;;;;;;;20.40;62.60;;;;;;5040930;28;855;-71
2022/11/29 08:02:47;;;;;;;;;;;20.30;62.70;;;;;;5042471;28;875;-71
2022/11/29 08:05:12;;;;;;;;;;;20.30;62.70;;;;;;5040400;28;936;-70
2022/11/29 08:07:38;;;;;;;;;;;20.30;62.80;;;;;;5042317;28;1347;-71
2022/11/29 08:10:05;;;;;;;;;;;20.30;62.80;;;;;;5030609;28;896;-70
2022/11/29 08:12:30;;;;;;;;;;;20.30;63.00;;;;;;5042384;28;958;-70
2022/11/29 08:14:55;;;;;;;;;;;20.30;63.00;;;;;;5039370;28;1450;-71
2022/11/29 08:17:21;;;;;;;;;;;20.20;63.10;;;;;;5036058;28;1914;-71
2022/11/29 08:19:46;;;;;;;;;;;20.20;63.10;;;;;;5039768;28;1260;-71
2022/11/29 08:22:12;;;;;;;;;;;20.20;63.20;;;;;;5031561;28;970;-71
2022/11/29 08:24:37;;;;;;;;;;;20.20;63.30;;;;;;5037118;28;1155;-71
2022/11/29 08:27:03;;;;;;;;;;;20.20;63.40;;;;;;5040809;28;820;-70
2022/11/29 08:29:28;;;;;;;;;;;20.20;63.40;;;;;;5034283;28;1280;-70
2022/11/29 08:31:54;;;;;;;;;;;20.10;63.40;;;;;;5048660;28;1366;-70
2022/11/29 08:34:20;;;;;;;;;;;20.10;63.40;;;;;;5019903;28;1383;-70
2022/11/29 08:36:45;;;;;;;;;;;20.10;63.40;;;;;;5037256;28;1918;-70
2022/11/29 08:39:11;;;;;;;;;;;20.10;63.50;;;;;;5045836;28;1252;-70
2022/11/29 08:41:36;;;;;;;;;;;20.10;63.60;;;;;;5034916;28;838;-70
2022/11/29 08:44:03;;;;;;;;;;;20.10;63.40;;;;;;5037056;28;847;-70
2022/11/29 08:47:34;;;;;;;;;;;20.10;63.40;;;;;;5043387;28;907;-70
2022/11/29 08:49:14;;;;;;;;;;;20.20;63.40;;;;;;5043804;28;1249;-70
2022/11/29 08:51:39;;;;;;;;;;;20.20;63.40;;;;;;5052542;28;844;-70
2022/11/29 08:54:05;;;;;;;;;;;20.20;63.40;;;;;;5054131;28;884;-70
2022/11/29 08:56:30;;;;;;;;;;;20.20;63.40;;;;;;5042662;28;1960;-70
2022/11/29 08:58:56;;;;;;;;;;;20.20;63.40;;;;;;5045878;28;1368;-70
2022/11/29 09:01:21;;;;;;;;;;;20.20;63.30;;;;;;5037228;28;969;-70
2022/11/29 09:04:00;;;;;;;;;;;20.20;63.80;;;;;;5041049;28;788;-70
2022/11/29 09:06:26;;;;;;;;;;;20.20;63.60;;;;;;5040962;28;870;-70
2022/11/29 09:08:55;;;;;;;;;;;20.20;63.50;;;;;;5023557;28;1271;-70
2022/11/29 09:11:21;;;;;;;;;;;20.20;63.50;;;;;;5026783;28;828;-70
2022/11/29 09:13:47;;;;;;;;;;;20.20;63.50;;;;;;5050789;28;1269;-70
2022/11/29 09:16:13;;;;;;;;;;;20.20;63.50;;;;;;5044536;28;1057;-70
2022/11/29 09:18:39;;;;;;;;;;;20.20;63.50;;;;;;5048345;28;1955;-70
2022/11/29 09:21:05;;;;;;;;;;;20.20;63.50;;;;;;5042893;28;891;-70
2022/11/29 09:23:31;;;;;;;;;;;20.10;63.50;;;;;;5039715;28;804;-71
2022/11/29 09:25:56;;;;;;;;;;;20.10;63.50;;;;;;5037211;28;773;-71
2022/11/29 09:28:22;;;;;;;;;;;20.20;63.60;;;;;;5042501;28;1265;-71
2022/11/29 09:30:49;;;;;;;;;;;20.10;63.50;;;;;;5047264;28;800;-71
2022/11/29 09:33:15;;;;;;;;;;;20.20;63.70;;;;;;5048794;28;847;-70
2022/11/29 09:35:41;;;;;;;;;;;20.20;63.70;;;;;;5033370;28;1006;-70
2022/11/29 09:38:06;;;;;;;;;;;20.20;63.70;;;;;;5041172;28;1975;-70
2022/11/29 09:40:45;;;;;;;;;;;20.20;63.60;;;;;;5025415;28;919;-70
2022/11/29 09:43:21;;;;;;;;;;;20.10;63.50;;;;;;5046835;28;904;-70
2022/11/29 09:45:47;;;;;;;;;;;20.20;63.50;;;;;;5036105;28;852;-69
2022/11/29 09:48:22;;;;;;;;;;;20.20;63.40;;;;;;5010417;28;1252;-70
2022/11/29 09:50:52;;;;;;;;;;;20.20;63.40;;;;;;5038618;28;950;-70
2022/11/29 09:53:33;;;;;;;;;;;20.20;63.40;;;;;;5038218;28;1075;-70
2022/11/29 09:56:25;;;;;;;;;;;20.20;63.40;;;;;;5039123;28;876;-70
2022/11/29 09:59:14;;;;;;;;;;;20.20;63.30;;;;;;5037049;28;1220;-70
2022/11/29 10:01:41;;;;;;;;;;;20.20;63.50;;;;;;5013063;28;1137;-70
2022/11/29 10:04:15;;;;;;;;;;;20.20;63.50;;;;;;5039234;28;1248;-70
2022/11/29 10:06:42;;;;;;;;;;;20.20;63.40;;;;;;5039448;28;906;-69
2022/11/29 10:09:12;;;;;;;;;;;20.20;63.40;;;;;;5039712;28;1320;-70
2022/11/29 10:11:41;;;;;;;;;;;20.20;63.50;;;;;;5025236;28;927;-70
2022/11/29 10:14:17;;;;;;;;;;;20.10;63.40;;;;;;5040893;28;1472;-70
2022/11/29 10:16:43;;;;;;;;;;;20.20;63.50;;;;;;5039593;28;1914;-70
2022/11/29 10:19:09;;;;;;;;;;;20.10;63.50;;;;;;5020263;28;1252;-70
2022/11/29 10:21:35;;;;;;;;;;;20.10;63.60;;;;;;5038541;28;833;-70
2022/11/29 10:24:02;;;;;;;;;;;20.10;63.60;;;;;;5021057;28;875;-70
2022/11/29 10:26:28;;;;;;;;;;;20.10;63.80;;;;;;5034554;28;999;-70
2022/11/29 10:28:56;;;;;;;;;;;20.10;63.70;;;;;;5023830;28;1320;-70
2022/11/29 10:31:26;;;;;;;;;;;20.10;64.20;;;;;;5038329;28;832;-70
2022/11/29 10:33:51;;;;;;;;;;;20.10;63.80;;;;;;5029365;28;1489;-70
2022/11/29 10:36:39;;;;;;;;;;;20.10;63.90;;;;;;5039582;28;827;-70
2022/11/29 10:39:05;;;;;;;;;;;20.10;63.80;;;;;;5026218;28;1256;-70
2022/11/29 10:41:31;;;;;;;;;;;20.10;63.90;;;;;;5040915;28;903;-70
2022/11/29 10:43:57;;;;;;;;;;;20.10;63.80;;;;;;5030495;28;1416;-70
2022/11/29 10:46:29;;;;;;;;;;;20.10;63.70;;;;;;5040097;28;828;-70
2022/11/29 10:48:55;;;;;;;;;;;20.10;63.80;;;;;;5026774;28;1261;-70
2022/11/29 10:51:20;;;;;;;;;;;20.10;63.90;;;;;;5039408;28;1264;-69
2022/11/29 10:53:46;;;;;;;;;;;20.10;63.90;;;;;;5039109;28;1463;-70
2022/11/29 10:56:21;;;;;;;;;;;20.10;63.90;;;;;;5022130;28;1128;-68
2022/11/29 10:58:53;;;;;;;;;;;20.20;63.90;;;;;;5020418;28;1890;-68
2022/11/29 11:01:19;;;;;;;;;;;20.20;61.30;;;;;;5040932;28;905;-69
2022/11/29 11:03:50;;;;;;;;;;;20.10;57.80;;;;;;5042277;28;785;-68
2022/11/29 11:06:17;;;;;;;;;;;20.00;55.90;;;;;;5038964;28;808;-68
2022/11/29 11:08:52;;;;;;;;;;;19.90;54.10;;;;;;5035207;28;1308;-68
2022/11/29 11:11:29;;;;;;;;;;;19.80;53.60;;;;;;5042175;28;813;-68
2022/11/29 11:14:04;;;;;;;;;;;19.70;52.50;;;;;;5024104;28;1426;-69
2022/11/29 11:16:30;;;;;;;;;;;19.60;51.90;;;;;;5037446;28;1918;-69
2022/11/29 11:18:56;;;;;;;;;;;19.50;50.90;;;;;;5034169;28;1257;-68
2022/11/29 11:21:22;;;;;;;;;;;19.40;50.40;;;;;;5038634;28;979;-69
2022/11/29 11:23:52;;;;;;;;;;;19.30;50.20;;;;;;5036928;28;926;-69
2022/11/29 11:26:17;;;;;;;;;;;19.30;49.60;;;;;;5036930;28;888;-69
2022/11/29 11:28:54;;;;;;;;;;;19.20;49.50;;;;;;5035188;28;1359;-68
2022/11/29 11:31:33;;;;;;;;;;;19.20;49.50;;;;;;5017028;28;809;-69
2022/11/29 11:34:17;;;;;;;;;;;19.10;49.10;;;;;;5030128;28;887;-69
2022/11/29 11:36:43;;;;;;;;;;;19.00;49.00;;;;;;5037316;28;1938;-69
2022/11/29 11:39:08;;;;;;;;;;;19.00;48.70;;;;;;5042758;28;1284;-69
2022/11/29 11:44:39;;;;;;;;;;;18.90;48.40;;;;;;5040112;28;812;-68
2022/11/29 11:47:05;;;;;;;;;;;18.90;48.50;;;;;;5037476;28;1976;-69
2022/11/29 11:49:34;;;;;;;;;;;18.80;48.20;;;;;;5023965;28;2199;-68
2022/11/29 11:51:59;;;;;;;;;;;18.80;48.20;;;;;;5037761;28;1362;-70
2022/11/29 11:54:25;;;;;;;;;;;18.70;47.90;;;;;;5036554;28;1236;-69
2022/11/29 11:56:51;;;;;;;;;;;18.70;47.80;;;;;;5029254;28;1906;-69
2022/11/29 11:59:20;;;;;;;;;;;18.70;47.90;;;;;;5024457;28;1363;-69
2022/11/29 12:01:46;;;;;;;;;;;18.60;47.70;;;;;;5017791;28;949;-69
2022/11/29 12:04:13;;;;;;;;;;;18.60;47.70;;;;;;5040268;28;792;-69
2022/11/29 12:06:51;;;;;;;;;;;18.60;47.70;;;;;;5034747;28;1031;-69
2022/11/29 12:09:22;;;;;;;;;;;18.50;47.50;;;;;;5029484;28;1252;-69
2022/11/29 12:12:26;;;;;;;;;;;18.50;47.50;;;;;;5029233;28;877;-70
2022/11/29 12:14:53;;;;;;;;;;;18.50;48.70;;;;;;4951269;28;1276;-70
2022/11/29 12:17:19;;;;;;;;;;;18.50;49.30;;;;;;4935510;29;1918;-70
2022/11/29 12:19:56;;;;;;;;;;;18.50;49.30;;;;;;4993198;28;1281;-70
2022/11/29 12:22:23;;;;;;;;;;;18.50;49.80;;;;;;5032756;28;1086;-70
2022/11/29 12:24:54;;;;;;;;;;;18.60;50.20;;;;;;5027699;28;821;-70
2022/11/29 12:27:19;;;;;;;;;;;18.60;50.50;;;;;;5032682;28;867;-70
2022/11/29 12:29:45;;;;;;;;;;;18.60;50.80;;;;;;5042491;28;1343;-70
2022/11/29 12:32:10;;;;;;;;;;;18.60;51.10;;;;;;5040909;28;932;-70
2022/11/29 12:34:36;;;;;;;;;;;18.70;51.40;;;;;;5044803;28;1018;-70
2022/11/29 12:37:24;;;;;;;;;;;18.70;51.80;;;;;;5030563;28;4316;-70
2022/11/29 12:39:59;;;;;;;;;;;18.60;52.00;;;;;;5036470;28;1867;-70
2022/11/29 12:42:35;;;;;;;;;;;18.70;52.30;;;;;;5051792;22;2453;-70
2022/11/29 12:45:12;;;;;;;;;;;18.70;52.60;;;;;;5051441;28;4434;-70
2022/11/29 12:47:38;;;;;;;;;;;18.70;52.80;;;;;;5037225;28;4104;-70
2022/11/29 12:50:06;;;;;;;;;;;18.70;53.00;;;;;;5067146;28;2495;-70
2022/11/29 12:52:34;;;;;;;;;;;18.70;53.20;;;;;;5063151;28;2255;-70
2022/11/29 12:55:15;;;;;;;;;;;18.70;53.40;;;;;;5060186;28;832;-70
2022/11/29 12:57:43;;;;;;;;;;;18.70;53.60;;;;;;5059393;28;1921;-70
2022/11/29 13:00:12;;;;;;;;;;;18.70;53.70;;;;;;5041169;28;1267;-70
2022/11/29 13:02:57;;;;;;;;;;;18.70;53.90;;;;;;5041493;28;2082;-69
2022/11/29 13:05:23;;;;;;;;;;;18.70;54.00;;;;;;5061640;28;1390;-69
2022/11/29 13:07:57;;;;;;;;;;;18.70;54.20;;;;;;5062965;28;1325;-69
2022/11/29 13:10:27;;;;;;;;;;;18.70;54.40;;;;;;5063232;28;821;-69
2022/11/29 13:12:54;;;;;;;;;;;18.80;55.20;;;;;;5051286;28;920;-69
2022/11/29 13:15:25;;;;;;;;;;;18.80;55.10;;;;;;5040469;28;1387;-69
2022/11/29 13:17:53;;;;;;;;;;;18.70;55.10;;;;;;5042661;28;1968;-69
2022/11/29 13:20:22;;;;;;;;;;;18.80;55.20;;;;;;5059354;28;911;-69
2022/11/29 13:22:50;;;;;;;;;;;18.70;55.20;;;;;;5055953;28;900;-69
2022/11/29 13:25:15;;;;;;;;;;;18.70;55.30;;;;;;5061024;28;902;-69
2022/11/29 13:27:41;;;;;;;;;;;18.70;55.40;;;;;;5059141;28;1264;-69
2022/11/29 13:30:12;;;;;;;;;;;18.70;55.50;;;;;;5039610;28;2180;-69
2022/11/29 13:32:57;;;;;;;;;;;18.70;55.60;;;;;;5058541;28;1197;-69
2022/11/29 13:35:26;;;;;;;;;;;18.70;55.70;;;;;;5054648;28;953;-68
2022/11/29 13:37:53;;;;;;;;;;;18.70;55.80;;;;;;5052395;28;2170;-68
2022/11/29 13:40:24;;;;;;;;;;;18.70;55.80;;;;;;5039067;28;1282;-68
2022/11/29 13:43:08;;;;;;;;;;;18.70;55.90;;;;;;5057679;28;1325;-68
2022/11/29 13:45:34;;;;;;;;;;;18.70;56.10;;;;;;5059366;28;1238;-68
2022/11/29 13:47:59;;;;;;;;;;;18.70;56.10;;;;;;5061626;28;1381;-69
2022/11/29 13:50:43;;;;;;;;;;;18.70;56.20;;;;;;5060402;28;879;-68
2022/11/29 13:53:19;;;;;;;;;;;18.70;56.30;;;;;;5045302;28;983;-68
2022/11/29 13:55:49;;;;;;;;;;;18.70;56.40;;;;;;5042143;28;1502;-68
2022/11/29 13:58:14;;;;;;;;;;;18.70;56.40;;;;;;5042043;28;1981;-68
2022/11/29 14:00:42;;;;;;;;;;;18.70;56.50;;;;;;5060688;28;824;-69
2022/11/29 14:03:17;;;;;;;;;;;18.70;56.60;;;;;;5060678;28;878;-68
2022/11/29 14:05:42;;;;;;;;;;;18.70;56.70;;;;;;5060837;28;940;-68
2022/11/29 14:08:24;;;;;;;;;;;18.70;56.70;;;;;;5041896;28;4672;-69
2022/11/29 14:10:50;;;;;;;;;;;18.70;56.80;;;;;;5058432;28;4128;-68
2022/11/29 14:13:16;;;;;;;;;;;18.70;56.90;;;;;;5044426;28;4806;-68
2022/11/29 14:15:41;;;;;;;;;;;18.70;57.00;;;;;;5057704;28;4630;-69
2022/11/29 14:18:08;;;;;;;;;;;18.70;57.00;;;;;;5054634;28;4700;-69
2022/11/29 14:20:43;;;;;;;;;;;18.70;57.10;;;;;;5030772;28;4335;-69
2022/11/29 14:23:11;;;;;;;;;;;18.70;57.10;;;;;;5058080;28;4797;-68
2022/11/29 14:26:00;;;;;;;;;;;18.70;57.20;;;;;;5034815;28;4667;-68
2022/11/29 14:28:29;;;;;;;;;;;18.60;57.20;;;;;;5045578;28;5142;-69
2022/11/29 14:30:55;;;;;;;;;;;18.70;57.40;;;;;;5045873;28;4431;-68
2022/11/29 14:33:39;;;;;;;;;;;18.70;57.40;;;;;;5053463;28;4539;-68
2022/11/29 14:36:14;;;;;;;;;;;18.70;57.50;;;;;;5047497;28;4452;-69
2022/11/29 14:38:58;;;;;;;;;;;18.60;57.50;;;;;;5055385;28;4153;-69
2022/11/29 14:41:32;;;;;;;;;;;18.60;57.50;;;;;;5054726;28;4592;-68
2022/11/29 14:44:05;;;;;;;;;;;18.70;57.60;;;;;;5042760;28;1900;-69
2022/11/29 14:46:30;;;;;;;;;;;18.70;57.70;;;;;;5059939;28;1376;-68
2022/11/29 14:48:55;;;;;;;;;;;18.60;57.70;;;;;;5044072;28;2125;-68
2022/11/29 14:51:24;;;;;;;;;;;18.60;57.90;;;;;;5059363;28;2002;-69
2022/11/29 14:53:59;;;;;;;;;;;18.60;58.10;;;;;;5044506;28;1575;-68
2022/11/29 14:56:28;;;;;;;;;;;18.60;58.00;;;;;;5050043;28;1316;-68
2022/11/29 14:59:12;;;;;;;;;;;18.70;58.00;;;;;;5059798;28;1907;-68
2022/11/29 15:01:41;;;;;;;;;;;18.60;58.10;;;;;;5061758;28;1364;-69